Terminal Aerodrome Forecast
Issued by NWS

Home | Current Version | Previous Version | Text Only | Print | Product List | Glossary On
Versions: 1 2 3 4 5 6 7 8 9 10 11 12 13 14 15 16 17 18 19 20 21 22 23 24
000
FTUS41 KCAR 281445 AAA
TAFBHB
TAF AMD
KBHB 281445Z 2815/2912 02012G20KT P6SM OVC060
     FM281700 36013G22KT 6SM -SN OVC040
     FM282300 35010G17KT P6SM SCT045 BKN100
     FM290800 33006KT P6SM SCT120
      AMD LTD TO CLD VIS AND WIND=

USA.gov is the U.S. government's official web portal to all federal, state and local government web resources and services.